Time;durP1;ratioP1;P1;durP2;ratioP2;P2;SDS_P1;SDS_P2;PMS_P1;PMS_P2;Temp;Humidity;BMP_temperature;BMP_pressure;BME280_temperature;BME280_humidity;BME280_pressure;Samples;Min_cycle;Max_cycle;Signal;HPM_P1;HPM_P2
2022/05/09 00:01:58;;;;;;;20.73;4.17;;;6.30;99.90;;;;;;6155412;23;20036;-85
2022/05/09 00:04:23;;;;;;;19.75;4.65;;;6.30;99.90;;;;;;6156661;23;20017;-85
2022/05/09 00:06:50;;;;;;;17.35;4.88;;;6.20;99.90;;;;;;6156748;23;20017;-85
2022/05/09 00:09:17;;;;;;;15.45;4.47;;;6.20;99.90;;;;;;6155355;23;20524;-85
2022/05/09 00:11:42;;;;;;;18.43;4.87;;;6.20;99.90;;;;;;6156174;23;20455;-85
2022/05/09 00:14:09;;;;;;;17.53;4.90;;;6.10;99.90;;;;;;6155179;23;20048;-85
2022/05/09 00:16:35;;;;;;;15.73;4.73;;;6.10;99.90;;;;;;6155928;23;20029;-85
2022/05/09 00:19:03;;;;;;;16.10;4.70;;;6.10;99.90;;;;;;6154816;23;20022;-85
2022/05/09 00:21:35;;;;;;;16.93;4.97;;;6.00;99.90;;;;;;6156920;23;20019;-85
2022/05/09 00:24:01;;;;;;;17.63;5.13;;;6.00;99.90;;;;;;6154528;23;20021;-85
2022/05/09 00:26:32;;;;;;;18.40;5.57;;;6.00;99.90;;;;;;6156803;23;20514;-85
2022/05/09 00:28:59;;;;;;;16.30;4.65;;;6.00;99.90;;;;;;6154008;23;20416;-85
2022/05/09 00:31:25;;;;;;;14.80;5.47;;;6.00;99.90;;;;;;6156614;23;20017;-85
2022/05/09 00:33:51;;;;;;;15.90;4.90;;;5.90;99.90;;;;;;6156349;23;20449;-85
2022/05/09 00:36:17;;;;;;;15.27;5.03;;;5.90;99.90;;;;;;6156046;23;20024;-84
2022/05/09 00:38:47;;;;;;;13.32;4.88;;;5.90;99.90;;;;;;6154584;23;20028;-84
2022/05/09 00:44:17;;;;;;;;;;;5.80;99.90;;;;;;6155917;23;20026;-84
2022/05/09 00:46:45;;;;;;;14.20;4.87;;;5.70;99.90;;;;;;6154027;23;19999;-84
2022/05/09 00:49:29;;;;;;;18.77;5.10;;;5.60;99.90;;;;;;6156450;23;20092;-85
2022/05/09 00:52:18;;;;;;;19.83;5.43;;;5.60;99.90;;;;;;6153496;23;20089;-84
2022/05/09 00:54:48;;;;;;;19.48;5.03;;;5.60;99.90;;;;;;6155525;23;20025;-84
2022/05/09 00:57:26;;;;;;;18.17;4.78;;;5.50;99.90;;;;;;6154064;23;20434;-85
2022/05/09 00:59:57;;;;;;;15.50;5.03;;;5.50;99.90;;;;;;6155999;23;20077;-84
2022/05/09 01:02:23;;;;;;;16.55;5.15;;;5.40;99.90;;;;;;6154419;23;20028;-85
2022/05/09 01:04:54;;;;;;;16.73;5.20;;;5.40;99.90;;;;;;6154657;23;20369;-85
2022/05/09 01:07:22;;;;;;;17.70;5.17;;;5.30;99.90;;;;;;6156119;23;20021;-85
2022/05/09 01:09:48;;;;;;;16.10;5.17;;;5.30;99.90;;;;;;6155874;23;20014;-84
2022/05/09 01:12:20;;;;;;;17.03;5.00;;;5.30;99.90;;;;;;6155525;23;20020;-84
2022/05/09 01:14:46;;;;;;;16.92;4.88;;;5.30;99.90;;;;;;6154426;23;20020;-84
2022/05/09 01:17:12;;;;;;;17.27;5.70;;;5.20;99.90;;;;;;6154378;23;20017;-84
2022/05/09 01:19:41;;;;;;;16.10;4.88;;;5.20;99.90;;;;;;6153421;23;20018;-84
2022/05/09 01:22:24;;;;;;;20.40;5.67;;;5.10;99.90;;;;;;6154408;23;20048;-84
2022/05/09 01:24:51;;;;;;;14.93;4.93;;;5.10;99.90;;;;;;6153819;23;20044;-84
2022/05/09 01:27:17;;;;;;;16.55;5.60;;;5.00;99.90;;;;;;6155689;23;20017;-84
2022/05/09 01:29:47;;;;;;;16.42;5.10;;;5.00;99.90;;;;;;6154116;23;20022;-84
2022/05/09 01:32:16;;;;;;;15.80;5.00;;;5.00;99.90;;;;;;6153565;23;20056;-85
2022/05/09 01:34:47;;;;;;;19.23;5.13;;;4.90;99.90;;;;;;6156016;23;20024;-84
2022/05/09 01:37:14;;;;;;;19.07;5.47;;;4.90;99.90;;;;;;6155756;23;20009;-84
2022/05/09 01:39:39;;;;;;;15.30;5.50;;;4.80;99.90;;;;;;6154788;23;20010;-84
2022/05/09 01:42:09;;;;;;;16.33;5.30;;;4.80;99.90;;;;;;6154143;23;20464;-84
2022/05/09 01:44:37;;;;;;;16.17;5.40;;;4.80;99.90;;;;;;6154169;23;20009;-84
2022/05/09 01:49:48;;;;;;;17.40;5.80;;;4.70;99.90;;;;;;6153777;23;20021;-84
2022/05/09 01:52:16;;;;;;;14.50;4.97;;;4.70;99.90;;;;;;6154087;23;20022;-84
2022/05/09 01:54:43;;;;;;;19.60;5.07;;;4.70;99.90;;;;;;6152599;23;20018;-85
2022/05/09 01:57:12;;;;;;;16.80;5.90;;;4.70;99.90;;;;;;6154051;23;20060;-84
2022/05/09 01:59:39;;;;;;;17.83;5.57;;;4.70;99.90;;;;;;6154093;23;20013;-84
2022/05/09 02:02:13;;;;;;;16.00;5.63;;;4.60;99.90;;;;;;6153936;23;20017;-84
2022/05/09 02:04:40;;;;;;;19.35;5.60;;;4.60;99.90;;;;;;6154106;23;20010;-84
2022/05/09 02:07:09;;;;;;;17.60;5.37;;;4.60;99.90;;;;;;6153163;23;20067;-84
2022/05/09 02:09:39;;;;;;;16.77;5.73;;;4.50;99.90;;;;;;6155938;23;20082;-84
2022/05/09 02:12:06;;;;;;;17.23;5.13;;;4.50;99.90;;;;;;6154015;23;20083;-84
2022/05/09 02:14:32;;;;;;;14.77;5.70;;;4.50;99.90;;;;;;6154536;23;20068;-84
2022/05/09 02:16:57;;;;;;;18.27;5.40;;;4.50;99.90;;;;;;6155454;23;20021;-84
2022/05/09 02:19:23;;;;;;;16.60;5.53;;;4.50;99.90;;;;;;6153373;23;20327;-84
2022/05/09 02:21:48;;;;;;;19.00;6.67;;;4.40;99.90;;;;;;6152680;23;20350;-83
2022/05/09 02:24:14;;;;;;;17.60;5.93;;;4.40;99.90;;;;;;6154213;23;20152;-84
2022/05/09 02:26:39;;;;;;;17.73;5.53;;;4.40;99.90;;;;;;6155383;23;20021;-84
2022/05/09 02:29:05;;;;;;;13.60;5.57;;;4.40;99.90;;;;;;6152936;23;20084;-84
2022/05/09 02:31:32;;;;;;;14.20;5.13;;;4.30;99.90;;;;;;6153742;23;20025;-84
2022/05/09 02:33:58;;;;;;;13.70;5.30;;;4.30;99.90;;;;;;6154905;23;20408;-84
2022/05/09 02:36:23;;;;;;;17.73;6.00;;;4.30;99.90;;;;;;6152909;23;20052;-84
2022/05/09 02:38:49;;;;;;;17.10;5.80;;;4.20;99.90;;;;;;6153446;23;20017;-84
2022/05/09 02:41:15;;;;;;;14.93;4.87;;;4.30;99.90;;;;;;6155638;23;20048;-84
2022/05/09 02:43:40;;;;;;;16.47;5.70;;;4.20;99.90;;;;;;6152683;23;20436;-84
2022/05/09 02:46:06;;;;;;;15.53;5.60;;;4.20;99.90;;;;;;6155746;23;20017;-84
2022/05/09 02:48:33;;;;;;;17.30;5.83;;;4.20;99.90;;;;;;6155656;23;20144;-84
2022/05/09 02:50:59;;;;;;;15.40;5.50;;;4.10;99.90;;;;;;6154290;23;20014;-84
2022/05/09 02:53:25;;;;;;;17.23;5.40;;;4.10;99.90;;;;;;6153850;23;20025;-84
2022/05/09 02:55:51;;;;;;;19.67;6.00;;;4.20;99.90;;;;;;6153310;23;20017;-84
2022/05/09 02:58:16;;;;;;;17.23;6.03;;;4.10;99.90;;;;;;6154290;23;20021;-84
2022/05/09 03:00:42;;;;;;;16.03;5.80;;;4.10;99.90;;;;;;6153207;23;20049;-84
2022/05/09 03:05:51;;;;;;;17.00;5.60;;;4.10;99.90;;;;;;6155001;23;20025;-84
2022/05/09 03:08:18;;;;;;;18.87;6.67;;;4.00;99.90;;;;;;6155479;23;20023;-84
2022/05/09 03:10:44;;;;;;;19.37;5.83;;;4.00;99.90;;;;;;6154208;23;20064;-84
2022/05/09 03:13:12;;;;;;;16.17;5.67;;;4.00;99.90;;;;;;6153775;23;20399;-84
2022/05/09 03:15:44;;;;;;;16.90;5.90;;;3.90;99.90;;;;;;6155537;23;20346;-84
2022/05/09 03:18:11;;;;;;;20.03;6.93;;;3.90;99.90;;;;;;6152647;23;20127;-84
2022/05/09 03:20:37;;;;;;;17.57;6.50;;;3.90;99.90;;;;;;6153512;23;20374;-84
2022/05/09 03:23:04;;;;;;;18.73;7.50;;;3.90;99.90;;;;;;6153549;23;20021;-84
2022/05/09 03:25:31;;;;;;;17.77;6.40;;;3.90;99.90;;;;;;6152472;23;20021;-85
2022/05/09 03:27:57;;;;;;;19.03;6.83;;;3.90;99.90;;;;;;6153488;23;20029;-84
2022/05/09 03:30:24;;;;;;;19.67;6.70;;;3.90;99.90;;;;;;6155385;23;20096;-84
2022/05/09 03:32:50;;;;;;;19.60;6.57;;;3.90;99.90;;;;;;6152030;23;20024;-84
2022/05/09 03:35:16;;;;;;;19.73;7.00;;;3.90;99.90;;;;;;6153321;23;20335;-84
2022/05/09 03:37:42;;;;;;;21.27;7.33;;;3.90;99.90;;;;;;6153137;23;20028;-84
2022/05/09 03:40:09;;;;;;;21.17;7.40;;;3.90;99.90;;;;;;6154344;23;20021;-84
2022/05/09 03:42:34;;;;;;;24.17;7.40;;;3.90;99.90;;;;;;6153754;23;20350;-84
2022/05/09 03:45:00;;;;;;;21.00;6.70;;;3.90;99.90;;;;;;6152790;23;20022;-84
2022/05/09 03:47:25;;;;;;;22.37;7.60;;;3.90;99.90;;;;;;6154239;23;20391;-84
2022/05/09 03:49:54;;;;;;;16.60;6.70;;;3.90;99.90;;;;;;6154499;23;20105;-84
2022/05/09 03:52:20;;;;;;;19.63;6.67;;;3.90;99.90;;;;;;6153593;23;20018;-84
2022/05/09 03:54:45;;;;;;;18.73;6.90;;;3.90;99.90;;;;;;6152271;23;20022;-84
2022/05/09 03:57:11;;;;;;;17.30;7.10;;;3.90;99.90;;;;;;6155595;23;20144;-84
2022/05/09 03:59:36;;;;;;;17.40;7.07;;;4.00;99.90;;;;;;6154999;23;20022;-84
2022/05/09 04:02:02;;;;;;;22.30;7.00;;;3.90;99.90;;;;;;6153098;23;20032;-84
2022/05/09 04:04:27;;;;;;;24.33;8.03;;;3.90;99.90;;;;;;6155974;23;20037;-84
2022/05/09 04:06:53;;;;;;;19.67;7.13;;;3.90;99.90;;;;;;6153481;23;20076;-84
2022/05/09 04:09:19;;;;;;;25.07;8.00;;;4.00;99.90;;;;;;6154679;23;20016;-84
2022/05/09 04:11:47;;;;;;;16.03;6.83;;;4.00;99.90;;;;;;6154509;23;20108;-84
2022/05/09 04:14:13;;;;;;;18.37;7.57;;;4.00;99.90;;;;;;6155545;23;20021;-84
2022/05/09 04:16:51;;;;;;;20.23;7.30;;;4.00;99.90;;;;;;6154776;23;20018;-84
2022/05/09 04:19:18;;;;;;;24.20;8.67;;;4.10;99.90;;;;;;6155231;23;20026;-84
2022/05/09 04:21:44;;;;;;;26.20;8.87;;;4.10;99.90;;;;;;6155354;23;20025;-84
2022/05/09 04:24:09;;;;;;;21.33;8.37;;;4.20;99.90;;;;;;6156461;23;20017;-84
2022/05/09 04:26:35;;;;;;;22.30;7.97;;;4.20;99.90;;;;;;6155046;23;20025;-84
2022/05/09 04:29:01;;;;;;;23.47;7.83;;;4.30;99.90;;;;;;6153539;23;20415;-84
2022/05/09 04:31:28;;;;;;;23.20;8.90;;;4.40;99.90;;;;;;6154834;23;20056;-84
2022/05/09 04:33:55;;;;;;;22.70;8.00;;;4.40;99.90;;;;;;6155516;23;20434;-84
2022/05/09 04:36:22;;;;;;;17.97;7.20;;;4.40;99.90;;;;;;6154104;23;20346;-84
2022/05/09 04:38:50;;;;;;;25.07;10.13;;;4.50;99.90;;;;;;6154463;23;20092;-84
2022/05/09 04:41:18;;;;;;;17.43;7.30;;;4.60;99.90;;;;;;6154649;23;20041;-84
2022/05/09 04:43:44;;;;;;;27.33;8.43;;;4.60;99.90;;;;;;6153188;23;20014;-84
2022/05/09 04:46:11;;;;;;;23.73;8.20;;;4.70;99.90;;;;;;6154736;23;20064;-84
2022/05/09 04:48:40;;;;;;;24.27;8.23;;;4.80;99.90;;;;;;6156624;23;20013;-83
2022/05/09 04:51:06;;;;;;;30.60;9.53;;;4.80;99.90;;;;;;6154071;23;20014;-84
2022/05/09 04:53:31;;;;;;;24.63;8.40;;;4.90;99.90;;;;;;6154861;23;20037;-84
2022/05/09 04:55:57;;;;;;;20.47;7.57;;;4.90;99.90;;;;;;6153313;23;20025;-84
2022/05/09 04:58:24;;;;;;;24.00;9.53;;;5.00;99.90;;;;;;6154733;23;20021;-84
2022/05/09 05:00:50;;;;;;;21.03;7.67;;;5.40;99.90;;;;;;6156497;23;20088;-84
2022/05/09 05:03:15;;;;;;;22.57;7.90;;;5.10;99.90;;;;;;6154198;23;20056;-84
2022/05/09 05:05:42;;;;;;;22.17;8.00;;;5.10;99.90;;;;;;6156043;23;20326;-84
2022/05/09 05:08:08;;;;;;;22.43;8.03;;;5.20;99.90;;;;;;6154637;23;20082;-84
2022/05/09 05:10:33;;;;;;;21.40;8.20;;;5.20;99.90;;;;;;6153169;23;20017;-84
2022/05/09 05:13:03;;;;;;;22.50;8.53;;;5.30;99.90;;;;;;6154113;23;20017;-84
2022/05/09 05:15:30;;;;;;;22.93;8.00;;;5.30;99.90;;;;;;6154626;23;20048;-84
2022/05/09 05:17:56;;;;;;;21.07;7.87;;;5.40;99.90;;;;;;6153439;23;20018;-84
2022/05/09 05:20:22;;;;;;;21.30;8.40;;;5.40;99.90;;;;;;6154698;23;20028;-84
2022/05/09 05:22:49;;;;;;;25.13;9.23;;;5.50;99.90;;;;;;6154522;23;20076;-87
2022/05/09 05:25:23;;;;;;;18.60;7.23;;;5.60;99.90;;;;;;6154907;23;20014;-87
2022/05/09 05:27:49;;;;;;;18.47;8.03;;;5.70;99.90;;;;;;6155788;23;20017;-87
2022/05/09 05:30:16;;;;;;;21.90;8.77;;;5.80;99.90;;;;;;6158019;23;20020;-87
2022/05/09 05:32:42;;;;;;;20.93;7.90;;;5.90;99.90;;;;;;6153753;23;20333;-87
2022/05/09 05:35:21;;;;;;;20.80;7.87;;;5.90;99.90;;;;;;6154640;23;20025;-87
2022/05/09 05:37:50;;;;;;;22.37;8.20;;;6.00;99.90;;;;;;6154698;23;20018;-86
2022/05/09 05:40:16;;;;;;;17.07;7.17;;;6.10;99.90;;;;;;6155697;23;20446;-89
2022/05/09 05:42:44;;;;;;;17.30;7.87;;;6.20;99.90;;;;;;6154583;23;20461;-89
2022/05/09 05:45:12;;;;;;;23.90;8.00;;;6.20;99.90;;;;;;6154437;23;20377;-89
2022/05/09 05:47:38;;;;;;;20.37;8.10;;;6.30;99.90;;;;;;6157566;23;20028;-89
2022/05/09 05:50:06;;;;;;;21.35;8.23;;;6.50;99.90;;;;;;6154633;23;20394;-87
2022/05/09 05:52:42;;;;;;;24.20;8.20;;;6.50;99.90;;;;;;6154497;23;20035;-88
2022/05/09 05:55:11;;;;;;;19.88;7.60;;;6.70;99.90;;;;;;6155089;23;20022;-86
2022/05/09 05:57:53;;;;;;;19.20;7.07;;;6.80;99.90;;;;;;6154821;23;20084;-86
2022/05/09 06:00:21;;;;;;;20.77;7.60;;;6.90;99.90;;;;;;6155812;23;20014;-87
2022/05/09 06:02:47;;;;;;;19.88;8.38;;;6.90;99.90;;;;;;6155423;23;20331;-88
2022/05/09 06:05:15;;;;;;;18.85;7.25;;;7.10;99.90;;;;;;6156162;23;20014;-90
2022/05/09 06:07:41;;;;;;;24.42;8.65;;;7.20;99.90;;;;;;6155607;23;20021;-88
2022/05/09 06:10:09;;;;;;;22.42;7.65;;;8.60;99.90;;;;;;6157272;23;20021;-91
2022/05/09 06:12:35;;;;;;;21.30;7.97;;;7.40;99.90;;;;;;6165133;23;20014;-91
2022/05/09 06:17:45;;;;;;;19.58;8.07;;;7.60;99.90;;;;;;6154415;23;20022;-89
2022/05/09 06:20:12;;;;;;;22.80;7.50;;;7.80;99.90;;;;;;6154339;23;20021;-91
2022/05/09 06:22:39;;;;;;;22.85;7.90;;;7.90;99.90;;;;;;6154889;23;20017;-90
2022/05/09 06:25:07;;;;;;;21.55;8.00;;;8.00;99.90;;;;;;6155033;23;20084;-90
2022/05/09 06:27:33;;;;;;;22.05;8.23;;;8.10;99.90;;;;;;6153631;23;20018;-91
2022/05/09 06:30:04;;;;;;;17.25;6.85;;;8.50;99.90;;;;;;6155807;23;20053;-91
2022/05/09 06:32:30;;;;;;;17.70;7.18;;;8.40;99.90;;;;;;6156928;23;20050;-87
2022/05/09 06:34:56;;;;;;;20.80;7.35;;;8.60;99.90;;;;;;6153514;23;20443;-88
2022/05/09 06:37:21;;;;;;;19.42;7.85;;;8.70;99.90;;;;;;6155809;23;20013;-88
2022/05/09 06:39:47;;;;;;;18.40;6.78;;;8.90;99.90;;;;;;6155485;23;20029;-88
2022/05/09 06:42:12;;;;;;;22.38;7.28;;;9.00;99.90;;;;;;6153191;23;20105;-89
2022/05/09 06:44:38;;;;;;;18.42;7.22;;;9.20;99.90;;;;;;6154257;23;20100;-88
2022/05/09 06:47:05;;;;;;;19.45;6.65;;;9.30;99.90;;;;;;6154615;23;20018;-89
2022/05/09 06:49:31;;;;;;;21.00;6.40;;;9.40;99.90;;;;;;6153527;23;20068;-88
2022/05/09 06:51:56;;;;;;;17.30;6.07;;;9.60;99.90;;;;;;6155684;23;20053;-87
2022/05/09 06:54:22;;;;;;;18.60;7.07;;;9.70;99.90;;;;;;6156185;23;20020;-87
2022/05/09 06:56:49;;;;;;;18.30;6.25;;;9.90;99.90;;;;;;6154406;23;20378;-87
2022/05/09 06:59:15;;;;;;;21.20;6.30;;;10.00;99.90;;;;;;6154116;23;20065;-87
2022/05/09 07:01:42;;;;;;;15.73;6.72;;;10.20;99.90;;;;;;6153229;23;20025;-87
2022/05/09 07:04:10;;;;;;;19.90;7.07;;;10.30;99.90;;;;;;6154370;23;20485;-86
2022/05/09 07:06:35;;;;;;;18.42;6.40;;;10.50;99.90;;;;;;6153696;23;20067;-87
2022/05/09 07:09:01;;;;;;;17.08;6.25;;;10.60;99.90;;;;;;6155106;23;20100;-88
2022/05/09 07:11:27;;;;;;;16.10;6.45;;;10.80;99.90;;;;;;6152807;23;20025;-90
2022/05/09 07:13:52;;;;;;;15.75;5.97;;;11.00;99.90;;;;;;6156572;23;20014;-87
2022/05/09 07:16:18;;;;;;;19.17;6.00;;;11.20;99.90;;;;;;6155736;23;20021;-90
2022/05/09 07:18:44;;;;;;;18.75;6.53;;;11.40;99.90;;;;;;6154278;23;20431;-87
2022/05/09 07:21:10;;;;;;;20.95;6.95;;;11.50;99.90;;;;;;6154669;23;20017;-87
2022/05/09 07:23:37;;;;;;;17.60;6.43;;;11.70;99.90;;;;;;6154863;23;20021;-88
2022/05/09 07:26:06;;;;;;;15.70;5.82;;;11.80;99.90;;;;;;6153950;23;20100;-89
2022/05/09 07:28:31;;;;;;;13.65;5.75;;;12.00;99.90;;;;;;6155518;23;20014;-89
2022/05/09 07:30:59;;;;;;;17.15;5.55;;;12.60;99.90;;;;;;6154288;23;20123;-89
2022/05/09 07:33:26;;;;;;;14.70;5.57;;;12.40;99.90;;;;;;6153081;23;20080;-90
2022/05/09 07:35:51;;;;;;;16.48;5.93;;;12.50;99.90;;;;;;6160436;23;20024;-88
2022/05/09 07:38:20;;;;;;;13.98;5.75;;;13.00;99.90;;;;;;6154868;23;20092;-87
2022/05/09 07:40:47;;;;;;;15.27;5.88;;;12.90;99.90;;;;;;6157095;23;20080;-88
2022/05/09 07:43:24;;;;;;;17.08;6.22;;;13.00;99.90;;;;;;6157899;23;20025;-88
2022/05/09 07:45:52;;;;;;;16.17;6.30;;;13.10;99.90;;;;;;6154529;23;20048;-88
2022/05/09 07:48:19;;;;;;;18.67;6.10;;;13.30;99.90;;;;;;6157127;23;20032;-86
2022/05/09 07:50:45;;;;;;;17.98;5.60;;;13.40;99.90;;;;;;6155204;23;20088;-88
2022/05/09 07:53:14;;;;;;;14.25;5.57;;;13.70;99.90;;;;;;6156106;23;20013;-90
2022/05/09 07:55:42;;;;;;;14.88;5.15;;;13.80;99.90;;;;;;6154855;23;20028;-88
2022/05/09 07:58:09;;;;;;;16.50;6.03;;;14.30;99.90;;;;;;6157875;23;20089;-90
2022/05/09 08:00:39;;;;;;;15.23;6.10;;;13.60;99.90;;;;;;6154998;23;20108;-90
2022/05/09 08:03:19;;;;;;;15.73;5.68;;;14.30;99.90;;;;;;6157471;23;20024;-91
2022/05/09 08:05:45;;;;;;;16.20;5.28;;;14.50;99.90;;;;;;6154757;23;20036;-88
2022/05/09 08:08:14;;;;;;;14.82;5.82;;;15.10;99.90;;;;;;6154856;23;20462;-91
2022/05/09 08:13:13;;;;;;;16.92;6.05;;;15.00;99.90;;;;;;6216596;23;20396;-90
2022/05/09 08:15:40;;;;;;;15.23;5.00;;;15.10;99.90;;;;;;6189811;23;20023;-90
2022/05/09 08:18:06;;;;;;;17.00;5.30;;;15.20;99.90;;;;;;6190694;23;20449;-90
2022/05/09 08:20:34;;;;;;;13.45;5.00;;;15.40;99.90;;;;;;6188700;23;20047;-90
2022/05/09 08:23:09;;;;;;;14.70;5.80;;;15.50;99.90;;;;;;6187502;23;20070;-89
2022/05/09 08:25:37;;;;;;;18.55;6.05;;;15.60;99.90;;;;;;6188321;23;20021;-89
2022/05/09 08:28:04;;;;;;;15.43;5.38;;;15.80;99.90;;;;;;6213471;23;20449;-90
2022/05/09 08:30:33;;;;;;;16.30;5.03;;;16.00;99.90;;;;;;6214205;23;20016;-90
2022/05/09 08:33:10;;;;;;;14.20;5.10;;;16.00;99.90;;;;;;6214877;23;20059;-89
2022/05/09 08:35:35;;;;;;;14.40;5.22;;;15.90;99.90;;;;;;6213306;23;20013;-90
2022/05/09 08:38:03;;;;;;;16.17;4.90;;;17.10;99.90;;;;;;6215492;23;20030;-89
2022/05/09 08:40:45;;;;;;;13.85;4.72;;;16.50;99.90;;;;;;6217141;23;20476;-89
2022/05/09 08:44:57;;;;;;;12.18;4.57;;;16.60;99.90;;;;;;6216075;23;20017;-89
2022/05/09 08:47:33;;;;;;;14.50;4.53;;;16.80;99.90;;;;;;6204360;23;20091;-87
2022/05/09 08:50:35;;;;;;;12.55;4.72;;;16.90;99.90;;;;;;6213297;23;20017;-89
2022/05/09 08:53:03;;;;;;;14.88;4.65;;;17.20;99.90;;;;;;6214119;23;20021;-88
2022/05/09 08:55:38;;;;;;;15.55;4.55;;;16.20;99.90;;;;;;6213559;23;20024;-89
2022/05/09 08:58:11;;;;;;;16.05;4.57;;;17.50;99.90;;;;;;6214575;23;20437;-88
2022/05/09 09:00:38;;;;;;;12.82;4.30;;;18.10;99.90;;;;;;6216864;23;20079;-88
2022/05/09 09:03:37;;;;;;;13.43;4.47;;;18.40;99.90;;;;;;6215329;23;20107;-89
2022/05/09 09:06:16;;;;;;;14.27;4.15;;;18.30;99.90;;;;;;6217193;23;20031;-91
2022/05/09 09:09:02;;;;;;;13.55;4.47;;;18.20;99.90;;;;;;6215025;23;20020;-90
2022/05/09 09:11:53;;;;;;;15.35;4.32;;;18.50;99.90;;;;;;6215105;23;20048;-90
2022/05/09 09:14:50;;;;;;;13.15;3.80;;;18.70;99.90;;;;;;6215156;23;20023;-89
2022/05/09 09:17:35;;;;;;;12.13;4.05;;;18.80;99.90;;;;;;6215706;23;20058;-91
2022/05/09 09:20:20;;;;;;;13.43;4.13;;;19.00;99.20;;;;;;6216073;23;20100;-88
2022/05/09 09:23:07;;;;;;;10.88;3.78;;;19.10;98.70;;;;;;6214228;23;20016;-87
2022/05/09 09:26:00;;;;;;;12.45;4.13;;;19.20;97.70;;;;;;6215756;23;20048;-87
2022/05/09 09:28:34;;;;;;;12.93;4.20;;;19.30;97.70;;;;;;6214432;23;20340;-87
2022/05/09 09:31:05;;;;;;;10.82;3.70;;;19.30;97.70;;;;;;6212902;23;20027;-87
2022/05/09 09:33:42;;;;;;;10.60;3.40;;;19.50;98.30;;;;;;6215703;23;20441;-88
2022/05/09 09:36:13;;;;;;;12.05;3.70;;;19.60;96.20;;;;;;6214393;23;20058;-88
2022/05/09 09:39:02;;;;;;;14.32;4.00;;;19.70;96.80;;;;;;6215358;23;20434;-88
2022/05/09 09:41:33;;;;;;;11.27;3.70;;;19.90;96.40;;;;;;6215391;23;20017;-88
2022/05/09 09:44:08;;;;;;;11.15;3.30;;;20.00;95.60;;;;;;6216559;23;20028;-88
2022/05/09 09:46:54;;;;;;;12.13;3.30;;;20.10;95.90;;;;;;6213605;23;20019;-87
2022/05/09 09:49:20;;;;;;;11.73;3.50;;;20.30;95.90;;;;;;6215670;23;20024;-87
2022/05/09 09:51:48;;;;;;;10.38;3.10;;;20.50;95.20;;;;;;6214212;23;20405;-87
2022/05/09 09:54:21;;;;;;;12.20;3.38;;;20.50;94.40;;;;;;6213914;23;20099;-88
2022/05/09 09:56:46;;;;;;;12.10;3.20;;;20.60;93.40;;;;;;6216174;23;20040;-87
2022/05/09 09:59:24;;;;;;;12.15;3.05;;;20.80;93.50;;;;;;6212952;23;20016;-87
2022/05/09 10:02:19;;;;;;;11.75;3.10;;;21.00;92.40;;;;;;6213802;23;20027;-87
2022/05/09 10:04:46;;;;;;;10.35;3.22;;;21.00;91.00;;;;;;6214064;23;20017;-87
2022/05/09 10:07:26;;;;;;;11.43;2.70;;;21.20;91.80;;;;;;6213405;23;20009;-87
2022/05/09 10:10:10;;;;;;;10.30;2.85;;;21.10;90.40;;;;;;6215914;23;20016;-87
2022/05/09 10:12:38;;;;;;;7.95;2.63;;;21.10;90.00;;;;;;6213078;23;20384;-88
2022/05/09 10:15:23;;;;;;;10.80;2.90;;;21.70;91.70;;;;;;6214095;23;20511;-87
2022/05/09 10:17:49;;;;;;;11.88;3.40;;;21.60;90.20;;;;;;6213904;23;20017;-87
2022/05/09 10:20:38;;;;;;;12.75;2.92;;;21.80;90.30;;;;;;6214238;23;20038;-88
2022/05/09 10:26:24;;;;;;;11.20;2.95;;;22.00;87.60;;;;;;6190050;23;20025;-88
2022/05/09 10:28:53;;;;;;;;;;;22.00;88.60;;;;;;6215474;23;20517;-88
2022/05/09 10:31:20;;;;;;;10.32;3.13;;;22.10;86.10;;;;;;6215727;23;19916;-88
2022/05/09 10:34:04;;;;;;;11.90;3.20;;;22.20;89.00;;;;;;6214854;23;20064;-88
2022/05/09 10:36:39;;;;;;;11.35;2.88;;;22.30;87.60;;;;;;6213966;23;20013;-88
2022/05/09 10:39:20;;;;;;;11.45;3.70;;;22.60;87.70;;;;;;6215486;23;20533;-87
2022/05/09 10:41:51;;;;;;;13.73;3.60;;;22.60;84.90;;;;;;6212351;23;20027;-88
2022/05/09 10:44:41;;;;;;;11.30;3.28;;;22.50;85.90;;;;;;6214120;23;20091;-88
2022/05/09 10:47:27;;;;;;;10.43;3.33;;;22.60;85.00;;;;;;6216037;23;20095;-88
2022/05/09 10:50:09;;;;;;;11.60;3.35;;;22.70;84.60;;;;;;6214142;23;20326;-88
2022/05/09 10:52:46;;;;;;;14.02;3.80;;;22.80;83.50;;;;;;6215504;23;20346;-88
2022/05/09 10:55:20;;;;;;;13.48;3.53;;;22.70;84.20;;;;;;6214416;23;20008;-87
2022/05/09 10:58:07;;;;;;;13.85;3.30;;;22.90;84.90;;;;;;6213897;23;20067;-88
2022/05/09 11:00:38;;;;;;;10.23;3.15;;;23.40;86.10;;;;;;6213337;23;20031;-87
2022/05/09 11:03:25;;;;;;;11.07;3.33;;;24.00;85.40;;;;;;6213949;23;20356;-87
2022/05/09 11:05:51;;;;;;;11.45;3.40;;;23.60;84.90;;;;;;6214692;23;20488;-88
2022/05/09 11:08:30;;;;;;;12.68;3.80;;;23.90;84.60;;;;;;6213766;23;20110;-87
2022/05/09 11:11:12;;;;;;;10.90;3.75;;;23.70;81.80;;;;;;6215648;23;20445;-87
2022/05/09 11:13:55;;;;;;;12.23;3.70;;;23.70;80.80;;;;;;6217576;23;20082;-87
2022/05/09 11:16:33;;;;;;;10.30;3.53;;;23.90;83.20;;;;;;6216813;23;20024;-87
2022/05/09 11:19:12;;;;;;;12.85;3.63;;;23.70;82.80;;;;;;6217374;23;20047;-88
2022/05/09 11:21:48;;;;;;;9.98;3.33;;;23.60;81.60;;;;;;6217649;23;20090;-88
2022/05/09 11:24:13;;;;;;;10.07;3.83;;;23.50;81.00;;;;;;6215068;23;20025;-87
2022/05/09 11:26:57;;;;;;;12.95;3.28;;;23.50;81.50;;;;;;6215173;23;20463;-87
2022/05/09 11:29:37;;;;;;;11.43;3.50;;;23.70;82.80;;;;;;6216166;23;20038;-87
2022/05/09 11:32:12;;;;;;;10.45;3.08;;;23.90;81.80;;;;;;6214400;23;20074;-87
2022/05/09 11:35:07;;;;;;;10.88;3.75;;;24.00;81.40;;;;;;6217382;23;20027;-87
2022/05/09 11:37:49;;;;;;;13.32;3.85;;;24.00;80.50;;;;;;6216681;23;20009;-88
2022/05/09 11:40:39;;;;;;;9.75;3.30;;;24.10;82.00;;;;;;6217348;23;20019;-88
2022/05/09 11:43:32;;;;;;;10.15;3.28;;;24.40;80.80;;;;;;6217416;23;20389;-88
2022/05/09 11:46:08;;;;;;;11.38;4.05;;;24.40;81.40;;;;;;6214494;23;20020;-87
2022/05/09 11:48:55;;;;;;;12.25;3.70;;;24.70;80.60;;;;;;6218386;23;20036;-87
2022/05/09 11:51:49;;;;;;;14.90;4.43;;;24.80;79.80;;;;;;6214405;23;20070;-87
2022/05/09 11:54:21;;;;;;;11.15;3.60;;;24.80;78.60;;;;;;6216008;23;20020;-87
2022/05/09 11:56:52;;;;;;;11.50;3.50;;;25.00;79.40;;;;;;6217068;23;20024;-88
2022/05/09 11:59:27;;;;;;;9.68;3.63;;;25.10;80.50;;;;;;6216362;23;20349;-87
2022/05/09 12:02:10;;;;;;;11.55;3.53;;;25.20;78.50;;;;;;6217522;23;20012;-87
2022/05/09 12:04:44;;;;;;;;;;;25.10;77.80;;;;;;6215968;23;20119;-87
2022/05/09 12:07:27;;;;;;;12.02;3.58;;;25.00;79.00;;;;;;6214664;23;19922;-87
2022/05/09 12:09:56;;;;;;;11.50;3.15;;;25.10;79.60;;;;;;6217152;23;20051;-87
2022/05/09 12:12:49;;;;;;;10.60;3.33;;;25.20;79.50;;;;;;6214634;23;20012;-88
2022/05/09 12:15:14;;;;;;;9.33;3.20;;;25.10;77.70;;;;;;6215641;23;20020;-88
2022/05/09 12:17:41;;;;;;;10.57;3.10;;;25.00;78.30;;;;;;6216522;23;20019;-88
2022/05/09 12:20:33;;;;;;;8.13;2.95;;;25.00;78.10;;;;;;6214491;23;20020;-88
2022/05/09 12:23:03;;;;;;;9.52;2.97;;;25.00;77.90;;;;;;6216932;23;20052;-88
2022/05/09 12:25:41;;;;;;;11.02;3.38;;;25.20;78.20;;;;;;6215328;23;20102;-87
2022/05/09 12:28:16;;;;;;;10.50;3.25;;;25.20;77.50;;;;;;6214156;23;20497;-87
2022/05/09 12:30:59;;;;;;;8.85;2.92;;;25.80;77.80;;;;;;6214619;23;20021;-88
2022/05/09 12:33:41;;;;;;;9.30;3.30;;;25.20;77.50;;;;;;6216075;23;20025;-87
2022/05/09 12:36:06;;;;;;;10.63;2.90;;;25.50;78.20;;;;;;6216738;23;20031;-87
2022/05/09 12:38:36;;;;;;;10.98;3.53;;;25.70;77.80;;;;;;6214608;23;20444;-88
2022/05/09 12:41:03;;;;;;;10.95;3.38;;;25.80;76.40;;;;;;6214903;23;20079;-87
2022/05/09 12:43:34;;;;;;;11.52;3.80;;;25.70;75.00;;;;;;6214496;23;20051;-88
2022/05/09 12:46:05;;;;;;;10.70;3.25;;;25.30;75.60;;;;;;6216565;23;20016;-87
2022/05/09 12:48:31;;;;;;;9.52;3.45;;;25.40;76.20;;;;;;6213976;23;20382;-87
2022/05/09 12:51:04;;;;;;;12.18;3.47;;;25.50;77.00;;;;;;6216122;23;20013;-88
2022/05/09 12:53:33;;;;;;;10.68;3.40;;;25.50;75.30;;;;;;6218221;23;20021;-88
2022/05/09 12:56:08;;;;;;;11.48;3.20;;;25.80;75.90;;;;;;6213533;23;20024;-87
2022/05/09 12:58:37;;;;;;;13.23;3.50;;;25.50;74.50;;;;;;6214719;23;20017;-87
2022/05/09 13:01:19;;;;;;;10.32;3.08;;;25.50;73.00;;;;;;6214241;23;20017;-87
2022/05/09 13:04:00;;;;;;;9.05;2.88;;;25.50;73.40;;;;;;6214281;23;20026;-87
2022/05/09 13:06:38;;;;;;;9.85;3.25;;;25.60;73.70;;;;;;6216216;23;20377;-88
2022/05/09 13:09:14;;;;;;;11.73;3.42;;;25.70;73.10;;;;;;6213436;23;20020;-88
2022/05/09 13:11:40;;;;;;;10.00;3.30;;;25.70;73.10;;;;;;6213861;23;20017;-87
2022/05/09 13:14:12;;;;;;;16.35;3.33;;;25.50;73.20;;;;;;6216591;23;20096;-88
2022/05/09 13:16:41;;;;;;;9.88;3.10;;;25.40;73.20;;;;;;6215700;23;20016;-87
2022/05/09 13:19:14;;;;;;;9.30;3.13;;;25.50;73.40;;;;;;6214476;23;20012;-87
2022/05/09 13:21:40;;;;;;;;;;;25.70;73.80;;;;;;6214276;23;20439;-87